createdAt,value
2019-02-24T00:01:17.439Z,17.43
2019-02-24T00:03:43.973Z,17.93
2019-02-24T00:06:10.519Z,17.90
2019-02-24T00:08:37.250Z,17.87
2019-02-24T00:11:03.883Z,19.10
2019-02-24T00:13:30.371Z,17.17
2019-02-24T00:15:56.958Z,17.70
2019-02-24T00:18:23.432Z,18.67
2019-02-24T00:20:49.929Z,17.53
2019-02-24T00:23:16.472Z,18.30
2019-02-24T00:25:43.097Z,18.07
2019-02-24T00:28:09.628Z,18.27
2019-02-24T00:30:36.489Z,18.50
2019-02-24T00:33:03.311Z,18.27
2019-02-24T00:35:29.845Z,18.07
2019-02-24T00:37:56.870Z,19.10
2019-02-24T00:40:23.625Z,17.67
2019-02-24T00:42:50.537Z,18.80
2019-02-24T00:45:17.211Z,18.47
2019-02-24T00:47:43.744Z,18.17
2019-02-24T00:50:10.282Z,17.47
2019-02-24T00:52:37.137Z,18.23
2019-02-24T00:55:03.659Z,18.27
2019-02-24T00:57:30.501Z,17.33
2019-02-24T00:59:57.349Z,18.60
2019-02-24T01:02:24.178Z,18.60
2019-02-24T01:04:51.023Z,18.80
2019-02-24T01:07:17.642Z,18.03
2019-02-24T01:09:44.402Z,18.17
2019-02-24T01:12:11.236Z,18.53
2019-02-24T01:14:38.078Z,17.67
2019-02-24T01:17:04.616Z,18.70
2019-02-24T01:19:31.152Z,18.43
2019-02-24T01:21:58.000Z,19.27
2019-02-24T01:24:24.524Z,19.73
2019-02-24T01:26:51.067Z,19.20
2019-02-24T01:29:18.822Z,19.23
2019-02-24T01:31:45.355Z,19.30
2019-02-24T01:34:12.198Z,20.23
2019-02-24T01:36:38.814Z,18.90
2019-02-24T01:39:05.580Z,20.77
2019-02-24T01:41:32.107Z,19.67
2019-02-24T01:43:58.961Z,18.50
2019-02-24T01:46:25.485Z,18.90
2019-02-24T01:48:52.025Z,19.47
2019-02-24T01:51:18.906Z,19.57
2019-02-24T01:53:45.713Z,21.40
2019-02-24T01:56:12.239Z,19.53
2019-02-24T01:58:38.858Z,18.53
2019-02-24T02:01:05.623Z,20.90
2019-02-24T02:03:32.479Z,19.77
2019-02-24T02:05:58.964Z,19.07
2019-02-24T02:08:25.523Z,18.50
2019-02-24T02:10:52.064Z,18.83
2019-02-24T02:13:18.695Z,19.77
2019-02-24T02:15:45.434Z,19.97
2019-02-24T02:18:12.277Z,19.13
2019-02-24T02:20:39.127Z,20.23
2019-02-24T02:23:05.663Z,19.40
2019-02-24T02:25:32.297Z,19.17
2019-02-24T02:27:59.032Z,18.97
2019-02-24T02:30:25.563Z,20.30
2019-02-24T02:32:52.404Z,19.13
2019-02-24T02:35:19.260Z,20.43
2019-02-24T02:37:45.782Z,19.23
2019-02-24T02:40:12.321Z,19.20
2019-02-24T02:42:39.471Z,18.53
2019-02-24T02:45:06.084Z,18.93
2019-02-24T02:47:32.841Z,18.37
2019-02-24T02:49:59.684Z,20.57
2019-02-24T02:52:26.220Z,19.30
2019-02-24T02:54:52.751Z,20.60
2019-02-24T02:57:19.593Z,19.50
2019-02-24T02:59:46.132Z,20.77
2019-02-24T03:02:12.660Z,19.77
2019-02-24T03:04:39.200Z,19.37
2019-02-24T03:07:05.752Z,21.33
2019-02-24T03:09:32.272Z,20.60
2019-02-24T03:11:59.108Z,19.70
2019-02-24T03:14:25.642Z,19.53
2019-02-24T03:16:52.482Z,19.40
2019-02-24T03:19:19.325Z,19.77
2019-02-24T03:21:45.860Z,19.60
2019-02-24T03:32:01.190Z,19.40
2019-02-24T03:34:27.722Z,19.03
2019-02-24T03:36:54.603Z,19.80
2019-02-24T03:39:21.403Z,19.07
2019-02-24T03:41:47.952Z,18.73
2019-02-24T03:44:14.776Z,18.83
2019-02-24T03:46:41.619Z,19.47
2019-02-24T03:49:08.151Z,19.83
2019-02-24T03:51:34.993Z,19.83
2019-02-24T03:54:01.840Z,19.70
2019-02-24T03:56:28.376Z,19.87
2019-02-24T03:58:54.916Z,20.67
2019-02-24T04:01:21.745Z,19.50
2019-02-24T04:03:48.587Z,18.53
2019-02-24T04:06:15.123Z,17.47
2019-02-24T04:08:41.656Z,17.27
2019-02-24T04:11:08.499Z,19.03
2019-02-24T04:13:35.343Z,17.90
2019-02-24T04:16:01.878Z,18.50
2019-02-24T04:18:28.771Z,19.40
2019-02-24T04:20:55.562Z,18.50
2019-02-24T04:23:22.093Z,18.80
2019-02-24T04:25:48.945Z,19.10
2019-02-24T04:28:15.471Z,18.97
2019-02-24T04:30:42.010Z,18.87
2019-02-24T04:33:08.541Z,19.30
2019-02-24T04:35:35.378Z,19.40
2019-02-24T04:38:02.225Z,18.50
2019-02-24T04:40:28.757Z,17.47
2019-02-24T04:42:55.291Z,18.17
2019-02-24T04:45:22.130Z,17.27
2019-02-24T04:47:48.672Z,16.93
2019-02-24T04:50:15.512Z,17.40
2019-02-24T04:52:42.348Z,16.93
2019-02-24T04:55:08.885Z,17.87
2019-02-24T04:57:35.426Z,17.27
2019-02-24T05:00:01.954Z,16.50
2019-02-24T05:02:28.794Z,16.97
2019-02-24T05:04:55.333Z,17.40
2019-02-24T05:07:21.869Z,16.57
2019-02-24T05:09:48.705Z,16.43
2019-02-24T05:12:15.237Z,16.27
2019-02-24T05:14:42.081Z,17.07
2019-02-24T05:17:08.616Z,17.43
2019-02-24T05:19:35.151Z,15.87
2019-02-24T05:22:01.684Z,15.30
2019-02-24T05:24:28.224Z,16.60
2019-02-24T05:26:55.070Z,16.83
2019-02-24T05:29:21.594Z,16.37
2019-02-24T05:31:48.133Z,15.87
2019-02-24T05:34:14.665Z,16.43
2019-02-24T05:36:41.199Z,16.50
2019-02-24T05:39:08.050Z,16.97
2019-02-24T05:41:34.580Z,17.17
2019-02-24T05:44:01.413Z,15.77
2019-02-24T05:46:27.955Z,16.07
2019-02-24T05:48:54.805Z,16.60
2019-02-24T05:51:21.633Z,15.43
2019-02-24T05:53:48.171Z,16.97
2019-02-24T05:56:14.709Z,17.40
2019-02-24T05:58:41.549Z,16.70
2019-02-24T06:01:08.385Z,16.73
2019-02-24T06:03:35.239Z,17.23
2019-02-24T06:06:01.764Z,18.50
2019-02-24T06:08:28.399Z,18.30
2019-02-24T06:10:55.145Z,18.47
2019-02-24T06:13:21.683Z,18.63
2019-02-24T06:15:48.521Z,18.87
2019-02-24T06:18:15.065Z,18.73
2019-02-24T06:20:41.583Z,18.63
2019-02-24T06:23:08.429Z,19.03
2019-02-24T06:25:34.958Z,19.53
2019-02-24T06:28:01.806Z,19.67
2019-02-24T06:30:28.339Z,19.93
2019-02-24T06:32:54.885Z,19.67
2019-02-24T06:35:21.404Z,22.73
2019-02-24T06:37:48.245Z,20.20
2019-02-24T06:40:15.094Z,20.87
2019-02-24T06:42:41.624Z,22.20
2019-02-24T06:45:08.166Z,22.07
2019-02-24T06:47:34.699Z,20.37
2019-02-24T06:50:01.254Z,22.57
2019-02-24T06:52:28.205Z,22.07
2019-02-24T06:54:54.908Z,21.20
2019-02-24T06:57:21.450Z,22.83
2019-02-24T06:59:47.989Z,22.27
2019-02-24T07:02:14.822Z,21.57
2019-02-24T07:04:41.663Z,22.63
2019-02-24T07:07:08.199Z,22.27
2019-02-24T07:09:34.738Z,21.77
2019-02-24T07:12:01.576Z,22.37
2019-02-24T07:14:28.108Z,20.87
2019-02-24T07:16:54.950Z,23.20
2019-02-24T07:19:21.482Z,23.40
2019-02-24T07:21:48.327Z,21.87
2019-02-24T07:24:14.869Z,24.17
2019-02-24T07:26:41.392Z,24.40
2019-02-24T07:29:08.001Z,22.60
2019-02-24T07:31:34.773Z,23.27
2019-02-24T07:34:01.624Z,23.70
2019-02-24T07:36:28.147Z,23.47
2019-02-24T07:38:54.681Z,23.30
2019-02-24T07:41:21.556Z,21.90
2019-02-24T07:43:48.370Z,23.53
2019-02-24T07:46:15.208Z,21.00
2019-02-24T07:48:41.743Z,22.30
2019-02-24T07:51:08.581Z,21.10
2019-02-24T07:53:35.437Z,20.83
2019-02-24T07:56:01.961Z,20.20
2019-02-24T07:58:28.496Z,21.47
2019-02-24T08:00:55.033Z,20.67
2019-02-24T08:03:21.880Z,21.00
2019-02-24T08:05:48.720Z,20.97
2019-02-24T08:08:16.638Z,19.67
2019-02-24T08:10:43.627Z,21.43
2019-02-24T08:13:10.162Z,19.90
2019-02-24T08:15:37.002Z,20.83
2019-02-24T08:18:03.846Z,20.13
2019-02-24T08:20:30.374Z,19.40
2019-02-24T08:22:57.228Z,19.53
2019-02-24T08:25:23.751Z,20.27
2019-02-24T08:27:50.285Z,21.13
2019-02-24T08:30:16.818Z,20.60
2019-02-24T08:32:43.352Z,19.40
2019-02-24T08:35:10.200Z,18.27
2019-02-24T08:37:36.727Z,19.03
2019-02-24T08:40:03.271Z,18.00
2019-02-24T08:42:30.113Z,18.10
2019-02-24T08:44:56.639Z,17.17
2019-02-24T08:47:23.279Z,17.63
2019-02-24T08:49:50.061Z,16.70
2019-02-24T08:52:16.859Z,16.90
2019-02-24T08:54:43.720Z,16.77
2019-02-24T08:57:10.235Z,15.33
2019-02-24T08:59:38.273Z,13.67
2019-02-24T09:02:05.154Z,15.77
2019-02-24T09:04:31.689Z,15.37
2019-02-24T09:06:58.523Z,14.77
2019-02-24T09:09:25.059Z,13.80
2019-02-24T09:11:51.591Z,13.30
2019-02-24T09:14:18.130Z,12.70
2019-02-24T09:16:44.663Z,13.17
2019-02-24T09:19:11.500Z,12.83
2019-02-24T09:21:38.038Z,14.20
2019-02-24T09:24:04.894Z,13.17
2019-02-24T09:26:31.724Z,13.57
2019-02-24T09:28:58.200Z,13.67
2019-02-24T09:31:25.405Z,13.50
2019-02-24T09:33:51.939Z,13.73
2019-02-24T09:36:18.790Z,13.30
2019-02-24T09:38:45.626Z,13.73
2019-02-24T09:41:12.256Z,13.93
2019-02-24T09:43:38.998Z,14.37
2019-02-24T09:46:05.530Z,14.13
2019-02-24T09:48:32.371Z,13.13
2019-02-24T09:50:58.832Z,14.37
2019-02-24T09:53:25.700Z,14.27
2019-02-24T09:55:52.286Z,14.30
2019-02-24T09:58:18.820Z,13.87
2019-02-24T10:00:45.659Z,14.33
2019-02-24T10:03:12.512Z,13.60
2019-02-24T10:05:39.166Z,14.63
2019-02-24T10:08:05.754Z,13.63
2019-02-24T10:10:32.414Z,14.10
2019-02-24T10:12:59.154Z,15.73
2019-02-24T10:15:25.787Z,16.03
2019-02-24T10:17:52.323Z,15.53
2019-02-24T10:20:18.953Z,15.53
2019-02-24T10:22:45.697Z,15.23
2019-02-24T10:25:12.239Z,16.00
2019-02-24T10:27:38.771Z,15.47
2019-02-24T10:30:05.315Z,16.00
2019-02-24T10:32:32.145Z,15.73
2019-02-24T10:34:58.677Z,14.87
2019-02-24T10:37:25.223Z,14.50
2019-02-24T10:39:51.750Z,14.77
2019-02-24T10:42:18.602Z,15.27
2019-02-24T10:44:45.206Z,15.93
2019-02-24T10:47:11.970Z,15.43
2019-02-24T10:49:38.502Z,14.97
2019-02-24T10:52:05.035Z,14.03
2019-02-24T10:54:31.574Z,14.73
2019-02-24T10:56:58.423Z,14.67
2019-02-24T10:59:24.950Z,14.27
2019-02-24T11:01:51.784Z,14.80
2019-02-24T11:04:18.328Z,14.93
2019-02-24T11:06:45.162Z,14.37
2019-02-24T11:09:12.010Z,14.50
2019-02-24T11:11:38.852Z,14.37
2019-02-24T11:14:05.696Z,14.53
2019-02-24T11:16:32.314Z,14.17
2019-02-24T11:18:59.064Z,14.40
2019-02-24T11:21:25.907Z,14.87
2019-02-24T11:23:52.442Z,15.30
2019-02-24T11:26:19.290Z,14.53
2019-02-24T11:28:45.818Z,15.73
2019-02-24T11:31:12.351Z,14.40
2019-02-24T11:33:39.201Z,14.77
2019-02-24T11:36:05.646Z,14.90
2019-02-24T11:38:32.572Z,15.10
2019-02-24T11:40:59.409Z,14.30
2019-02-24T11:43:25.862Z,14.33
2019-02-24T11:45:52.482Z,14.00
2019-02-24T11:48:19.020Z,15.90
2019-02-24T11:50:45.858Z,14.67
2019-02-24T11:53:12.704Z,14.23
2019-02-24T11:55:39.239Z,14.00
2019-02-24T11:58:06.074Z,14.37
2019-02-24T12:00:32.914Z,14.87
2019-02-24T12:02:59.452Z,15.67
2019-02-24T12:05:25.985Z,14.60
2019-02-24T12:07:52.826Z,14.80
2019-02-24T12:10:19.672Z,14.03
2019-02-24T12:12:46.510Z,14.07
2019-02-24T12:15:13.048Z,13.67
2019-02-24T12:17:39.590Z,14.97
2019-02-24T12:20:06.421Z,13.40
2019-02-24T12:22:33.293Z,13.87
2019-02-24T12:25:00.420Z,13.60
2019-02-24T12:27:27.031Z,13.60
2019-02-24T12:29:53.807Z,13.73
2019-02-24T12:32:20.625Z,14.03
2019-02-24T12:34:47.468Z,14.10
2019-02-24T12:37:15.081Z,13.93
2019-02-24T12:39:41.766Z,13.97
2019-02-24T12:42:08.615Z,14.17
2019-02-24T12:44:35.157Z,14.07
2019-02-24T12:47:01.984Z,14.23
2019-02-24T12:49:28.516Z,14.43
2019-02-24T12:51:55.359Z,13.67
2019-02-24T12:54:21.894Z,12.93
2019-02-24T12:56:48.431Z,14.13
2019-02-24T12:59:15.273Z,13.23
2019-02-24T13:01:42.112Z,14.13
2019-02-24T13:04:09.101Z,13.73
2019-02-24T13:06:35.796Z,13.57
2019-02-24T13:09:02.347Z,13.97
2019-02-24T13:11:29.171Z,14.73
2019-02-24T13:13:55.715Z,13.33
2019-02-24T13:16:22.843Z,13.27
2019-02-24T13:18:49.389Z,13.50
2019-02-24T13:21:16.418Z,13.43
2019-02-24T13:23:43.274Z,13.03
2019-02-24T13:26:09.754Z,13.10
2019-02-24T13:28:36.457Z,12.80
2019-02-24T13:31:02.990Z,13.27
2019-02-24T13:33:29.516Z,13.73
2019-02-24T13:35:56.494Z,13.87
2019-02-24T13:38:23.201Z,13.07
2019-02-24T13:40:50.044Z,14.13
2019-02-24T13:43:16.853Z,15.37
2019-02-24T13:45:43.425Z,13.23
2019-02-24T13:48:10.035Z,14.80
2019-02-24T13:50:36.798Z,13.80
2019-02-24T13:53:03.332Z,14.50
2019-02-24T13:55:29.860Z,13.83
2019-02-24T13:57:56.398Z,13.37
2019-02-24T14:00:22.931Z,13.70
2019-02-24T14:02:49.772Z,13.80
2019-02-24T14:05:16.307Z,13.93
2019-02-24T14:07:42.846Z,13.37
2019-02-24T14:10:09.381Z,13.37
2019-02-24T14:12:36.220Z,13.93
2019-02-24T14:15:02.751Z,13.33
2019-02-24T14:17:29.592Z,13.20
2019-02-24T14:19:56.133Z,13.80
2019-02-24T14:22:22.969Z,14.40
2019-02-24T14:24:49.812Z,13.87
2019-02-24T14:27:16.354Z,15.20
2019-02-24T14:29:42.890Z,12.53
2019-02-24T14:32:09.741Z,13.17
2019-02-24T14:34:36.600Z,13.80
2019-02-24T14:37:03.408Z,13.27
2019-02-24T14:39:30.249Z,13.57
2019-02-24T14:41:56.781Z,13.43
2019-02-24T14:44:23.633Z,13.83
2019-02-24T14:46:50.194Z,13.83
2019-02-24T14:49:16.954Z,13.63
2019-02-24T14:51:43.767Z,13.67
2019-02-24T14:54:10.343Z,13.53
2019-02-24T14:56:36.867Z,13.20
2019-02-24T14:59:03.366Z,14.00
2019-02-24T15:01:29.979Z,14.47
2019-02-24T15:03:56.830Z,13.97
2019-02-24T15:06:23.900Z,13.87
2019-02-24T15:08:50.400Z,12.83
2019-02-24T15:11:16.883Z,14.50
2019-02-24T15:13:43.414Z,15.03
2019-02-24T15:16:11.844Z,13.53
2019-02-24T15:18:38.810Z,14.00
2019-02-24T15:21:06.237Z,14.57
2019-02-24T15:23:33.096Z,14.50
2019-02-24T15:25:59.945Z,14.13
2019-02-24T15:28:26.771Z,14.30
2019-02-24T15:30:53.514Z,14.97
2019-02-24T15:33:20.501Z,15.50
2019-02-24T15:35:47.034Z,14.40
2019-02-24T15:38:14.654Z,14.17
2019-02-24T15:40:41.337Z,14.60
2019-02-24T15:43:08.616Z,13.73
2019-02-24T15:45:35.288Z,15.10
2019-02-24T15:48:02.426Z,15.90
2019-02-24T15:50:29.273Z,14.87
2019-02-24T15:52:55.807Z,15.27
2019-02-24T15:55:22.655Z,14.60
2019-02-24T15:57:49.531Z,14.53
2019-02-24T16:00:16.948Z,13.70
2019-02-24T16:02:44.096Z,13.83
2019-02-24T16:05:10.943Z,13.73
2019-02-24T16:07:37.777Z,14.67
2019-02-24T16:10:04.928Z,15.03
2019-02-24T16:12:31.455Z,14.57
2019-02-24T16:14:57.987Z,15.17
2019-02-24T16:17:24.840Z,14.80
2019-02-24T16:19:51.326Z,15.80
2019-02-24T16:22:18.207Z,16.10
2019-02-24T16:24:44.746Z,15.07
2019-02-24T16:27:11.584Z,14.70
2019-02-24T16:29:38.424Z,15.50
2019-02-24T16:32:04.968Z,15.47
2019-02-24T16:34:31.810Z,14.43
2019-02-24T16:36:58.643Z,15.47
2019-02-24T16:39:25.269Z,15.63
2019-02-24T16:41:52.008Z,15.27
2019-02-24T16:44:18.594Z,15.13
2019-02-24T16:46:45.397Z,14.87
2019-02-24T16:49:11.935Z,15.70
2019-02-24T16:51:38.776Z,16.33
2019-02-24T16:54:05.617Z,15.90
2019-02-24T16:56:32.157Z,17.50
2019-02-24T16:58:58.682Z,15.97
2019-02-24T17:01:25.538Z,15.83
2019-02-24T17:03:52.349Z,15.87
2019-02-24T17:06:18.900Z,15.33
2019-02-24T17:08:52.084Z,17.00
2019-02-24T17:11:13.827Z,15.93
2019-02-24T17:13:40.653Z,16.03
2019-02-24T17:16:07.543Z,16.60
2019-02-24T17:18:34.348Z,16.10
2019-02-24T17:21:01.179Z,16.53
2019-02-24T17:23:28.534Z,16.50
2019-02-24T17:25:55.950Z,16.30
2019-02-24T17:28:22.934Z,17.53
2019-02-24T17:33:35.361Z,17.63
2019-02-24T17:36:01.923Z,16.90
2019-02-24T17:38:28.740Z,17.40
2019-02-24T17:40:55.572Z,16.77
2019-02-24T17:43:22.113Z,17.63
2019-02-24T17:45:48.957Z,17.23
2019-02-24T17:48:15.483Z,18.00
2019-02-24T17:50:42.032Z,19.10
2019-02-24T17:53:08.557Z,18.27
2019-02-24T17:55:35.401Z,17.80
2019-02-24T17:58:02.785Z,17.77
2019-02-24T18:00:29.696Z,16.93
2019-02-24T18:02:56.288Z,18.97
2019-02-24T18:05:22.931Z,17.87
2019-02-24T18:07:52.677Z,17.80
2019-02-24T18:10:19.297Z,17.53
2019-02-24T18:12:46.070Z,18.30
2019-02-24T18:15:12.899Z,17.80
2019-02-24T18:17:39.430Z,17.53
2019-02-24T18:20:05.967Z,17.77
2019-02-24T18:22:32.802Z,17.40
2019-02-24T18:25:03.181Z,18.43
2019-02-24T18:27:28.026Z,17.50
2019-02-24T18:29:55.137Z,17.53
2019-02-24T18:32:22.015Z,17.70
2019-02-24T18:34:49.166Z,17.37
2019-02-24T18:37:15.634Z,17.90
2019-02-24T18:39:42.148Z,17.73
2019-02-24T18:42:08.663Z,17.83
2019-02-24T18:44:35.133Z,17.97
2019-02-24T18:47:01.680Z,17.93
2019-02-24T18:49:28.166Z,16.83
2019-02-24T18:51:54.903Z,17.70
2019-02-24T18:54:21.815Z,18.73
2019-02-24T18:56:48.595Z,18.53
2019-02-24T18:59:15.130Z,18.10
2019-02-24T19:01:41.598Z,17.47
2019-02-24T19:04:08.346Z,17.13
2019-02-24T19:06:39.187Z,17.33
2019-02-24T19:09:03.725Z,17.77
2019-02-24T19:11:30.556Z,17.60
2019-02-24T19:13:57.091Z,17.63
2019-02-24T19:16:23.727Z,17.63
2019-02-24T19:18:50.479Z,17.67
2019-02-24T19:21:17.563Z,17.10
2019-02-24T19:23:44.457Z,17.40
2019-02-24T19:26:10.996Z,17.23
2019-02-24T19:28:37.530Z,17.47
2019-02-24T19:31:04.374Z,17.03
2019-02-24T19:33:30.826Z,16.70
2019-02-24T19:35:57.441Z,18.17
2019-02-24T19:38:23.971Z,17.70
2019-02-24T19:40:50.513Z,16.53
2019-02-24T19:43:17.042Z,16.73
2019-02-24T19:45:43.888Z,18.07
2019-02-24T19:48:10.722Z,18.00
2019-02-24T19:50:37.570Z,17.33
2019-02-24T19:53:04.408Z,17.33
2019-02-24T19:55:31.339Z,16.53
2019-02-24T19:57:57.886Z,17.07
2019-02-24T20:00:24.624Z,16.57
2019-02-24T20:02:51.473Z,17.57
2019-02-24T20:05:18.023Z,18.33
2019-02-24T20:07:45.873Z,17.80
2019-02-24T20:10:15.335Z,17.10
2019-02-24T20:12:41.606Z,17.23
2019-02-24T20:15:08.139Z,16.40
2019-02-24T20:17:34.682Z,17.47
2019-02-24T20:20:01.205Z,17.77
2019-02-24T20:22:27.738Z,18.00
2019-02-24T20:24:54.272Z,16.73
2019-02-24T20:27:21.114Z,17.30
2019-02-24T20:29:47.650Z,18.60
2019-02-24T20:32:14.498Z,17.17
2019-02-24T20:34:41.022Z,16.57
2019-02-24T20:37:08.176Z,17.00
2019-02-24T20:39:34.708Z,17.20
2019-02-24T20:42:01.244Z,16.83
2019-02-24T20:44:28.090Z,16.13
2019-02-24T20:46:54.924Z,17.83
2019-02-24T20:49:22.079Z,16.17
2019-02-24T20:51:48.922Z,16.27
2019-02-24T20:54:15.456Z,16.83
2019-02-24T20:56:41.988Z,15.70
2019-02-24T20:59:08.885Z,16.60
2019-02-24T21:01:35.669Z,16.80
2019-02-24T21:04:02.512Z,16.57
2019-02-24T21:06:29.046Z,16.33
2019-02-24T21:08:55.579Z,16.67
2019-02-24T21:11:22.118Z,17.03
2019-02-24T21:13:48.897Z,17.13
2019-02-24T21:16:15.502Z,16.57
2019-02-24T21:18:42.021Z,16.97
2019-02-24T21:21:08.864Z,17.17
2019-02-24T21:23:35.709Z,17.23
2019-02-24T21:26:03.859Z,16.77
2019-02-24T21:28:30.648Z,16.83
2019-02-24T21:30:57.461Z,15.90
2019-02-24T21:33:24.319Z,17.63
2019-02-24T21:35:51.767Z,16.97
2019-02-24T21:38:18.600Z,17.57
2019-02-24T21:40:45.449Z,16.33
2019-02-24T21:43:12.299Z,15.87
2019-02-24T21:45:38.830Z,16.20
2019-02-24T21:48:05.666Z,16.83
2019-02-24T21:50:32.510Z,16.67
2019-02-24T21:52:59.443Z,16.37
2019-02-24T21:55:26.182Z,16.30
2019-02-24T21:57:52.732Z,17.07
2019-02-24T22:00:19.546Z,16.83
2019-02-24T22:02:47.122Z,16.47
2019-02-24T22:05:13.765Z,17.17
2019-02-24T22:07:40.889Z,16.47
2019-02-24T22:10:07.852Z,17.43
2019-02-24T22:12:34.382Z,17.27
2019-02-24T22:15:01.224Z,16.47
2019-02-24T22:17:27.755Z,18.03
2019-02-24T22:19:54.290Z,17.97
2019-02-24T22:22:20.826Z,17.80
2019-02-24T22:24:47.359Z,17.73
2019-02-24T22:27:14.215Z,17.27
2019-02-24T22:29:41.356Z,17.40
2019-02-24T22:32:07.888Z,16.53
2019-02-24T22:34:35.084Z,16.23
2019-02-24T22:37:01.650Z,16.37
2019-02-24T22:39:28.298Z,16.37
2019-02-24T22:41:54.964Z,16.63
2019-02-24T22:44:21.798Z,17.40
2019-02-24T22:46:48.321Z,16.47
2019-02-24T22:49:15.172Z,16.30
2019-02-24T22:51:42.004Z,17.23
2019-02-24T22:54:08.542Z,15.63
2019-02-24T22:56:35.074Z,15.60
2019-02-24T22:59:01.610Z,16.93
2019-02-24T23:01:28.430Z,16.07
2019-02-24T23:03:55.295Z,16.87
2019-02-24T23:06:21.837Z,16.70
2019-02-24T23:08:48.361Z,16.60
2019-02-24T23:11:15.205Z,15.80
2019-02-24T23:13:42.052Z,16.40
2019-02-24T23:16:09.096Z,15.53
2019-02-24T23:18:35.728Z,15.73
2019-02-24T23:21:02.668Z,16.10
2019-02-24T23:23:29.414Z,15.93
2019-02-24T23:25:55.949Z,15.03
2019-02-24T23:28:22.788Z,15.73
2019-02-24T23:30:49.321Z,15.57
2019-02-24T23:33:16.178Z,15.70
2019-02-24T23:35:43.012Z,15.97
2019-02-24T23:38:09.551Z,15.37
2019-02-24T23:40:36.379Z,15.40
2019-02-24T23:43:03.223Z,15.90
2019-02-24T23:45:30.066Z,15.70
2019-02-24T23:47:56.523Z,15.03
2019-02-24T23:50:23.131Z,15.37
2019-02-24T23:52:49.768Z,15.20
2019-02-24T23:55:16.510Z,14.83
2019-02-24T23:57:43.297Z,14.87
